Time;durP1;ratioP1;P1;durP2;ratioP2;P2;SDS_P1;SDS_P2;PMS_P1;PMS_P2;Temp;Humidity;BMP_temperature;BMP_pressure;BME280_temperature;BME280_humidity;BME280_pressure;Samples;Min_cycle;Max_cycle;Signal;HPM_P1;HPM_P2
2022/08/31 00:05:50;;;;;;;3.58;2.70;;;;;;;;;;5002754;28;20120;-55
2022/08/31 00:08:16;;;;;;;3.88;2.38;;;;;;;;;;4994748;28;20078;-45
2022/08/31 00:10:45;;;;;;;3.10;2.40;;;;;;;;;;4995772;28;20054;-43
2022/08/31 00:13:11;;;;;;;3.53;2.33;;;;;;;;;;4994748;28;20466;-45
2022/08/31 00:15:37;;;;;;;2.55;2.05;;;;;;;;;;4995857;28;20027;-44
2022/08/31 00:18:03;;;;;;;3.08;2.28;;;;;;;;;;4994935;28;20029;-43
2022/08/31 00:20:29;;;;;;;3.15;2.22;;;;;;;;;;4995693;28;20487;-43
2022/08/31 00:22:55;;;;;;;3.05;2.25;;;;;;;;;;4998275;28;20424;-43
2022/08/31 00:25:22;;;;;;;2.88;2.30;;;;;;;;;;5015177;28;20379;-42
2022/08/31 00:27:48;;;;;;;2.38;1.98;;;;;;;;;;5014823;28;20029;-53
2022/08/31 00:30:14;;;;;;;2.55;2.00;;;;;;;;;;5014754;28;20034;-42
2022/08/31 00:32:40;;;;;;;3.10;2.08;;;;;;;;;;5014967;28;20029;-43
2022/08/31 00:35:07;;;;;;;2.22;1.98;;;;;;;;;;5014058;28;20017;-42
2022/08/31 00:37:33;;;;;;;2.92;1.77;;;;;;;;;;5014937;28;20022;-43
2022/08/31 00:39:59;;;;;;;3.03;2.33;;;;;;;;;;5011900;28;20456;-44
2022/08/31 00:42:25;;;;;;;2.72;2.30;;;;;;;;;;5014484;28;20391;-48
2022/08/31 00:44:51;;;;;;;2.95;2.10;;;;;;;;;;5014344;28;20083;-56
2022/08/31 00:47:17;;;;;;;2.70;2.17;;;;;;;;;;5014620;28;20080;-43
2022/08/31 00:49:48;;;;;;;3.67;2.03;;;;;;;;;;5014442;28;20026;-46
2022/08/31 00:52:17;;;;;;;2.67;1.90;;;;;;;;;;5014204;28;20033;-42
2022/08/31 00:54:47;;;;;;;2.30;1.92;;;;;;;;;;5012565;28;20034;-46
2022/08/31 00:57:13;;;;;;;3.00;2.30;;;;;;;;;;5013744;28;20974;-45
2022/08/31 00:59:40;;;;;;;2.72;2.13;;;;;;;;;;5014506;28;20072;-43
2022/08/31 01:02:06;;;;;;;3.03;2.65;;;;;;;;;;5013922;28;20032;-44
2022/08/31 01:04:33;;;;;;;2.35;1.75;;;;;;;;;;5014311;28;20033;-44
2022/08/31 01:06:59;;;;;;;3.22;2.40;;;;;;;;;;5013508;28;20491;-43
2022/08/31 01:09:26;;;;;;;2.95;2.25;;;;;;;;;;5014222;28;20034;-44
2022/08/31 01:11:52;;;;;;;2.80;2.00;;;;;;;;;;5011438;28;20022;-55
2022/08/31 01:14:19;;;;;;;3.65;2.13;;;;;;;;;;5013913;28;20026;-47
2022/08/31 01:16:46;;;;;;;2.47;2.10;;;;;;;;;;5014395;28;20028;-46
2022/08/31 01:19:29;;;;;;;3.97;2.42;;;;;;;;;;5013164;28;20022;-47
2022/08/31 01:22:06;;;;;;;3.30;2.28;;;;;;;;;;5013746;28;20056;-49
2022/08/31 01:24:33;;;;;;;4.30;2.50;;;;;;;;;;5014310;28;20101;-44
2022/08/31 01:27:02;;;;;;;3.90;2.10;;;;;;;;;;5009157;28;20459;-43
2022/08/31 01:29:29;;;;;;;3.35;2.05;;;;;;;;;;4994523;28;20066;-45
2022/08/31 01:31:55;;;;;;;4.22;2.40;;;;;;;;;;4993748;28;20430;-54
2022/08/31 01:34:21;;;;;;;3.03;2.20;;;;;;;;;;4994339;28;20110;-46
2022/08/31 01:36:47;;;;;;;2.83;1.90;;;;;;;;;;4994578;28;20023;-45
2022/08/31 01:39:13;;;;;;;3.17;2.20;;;;;;;;;;4993311;28;20340;-46
2022/08/31 01:41:42;;;;;;;2.90;2.20;;;;;;;;;;4993988;28;20058;-47
2022/08/31 01:44:09;;;;;;;4.18;2.25;;;;;;;;;;4993239;28;20026;-46
2022/08/31 01:46:36;;;;;;;3.55;2.17;;;;;;;;;;5009452;28;20417;-43
2022/08/31 01:49:02;;;;;;;3.42;2.33;;;;;;;;;;5012776;28;20033;-47
2022/08/31 01:51:28;;;;;;;3.28;2.38;;;;;;;;;;5013550;28;20029;-47
2022/08/31 01:53:54;;;;;;;2.72;2.17;;;;;;;;;;5013252;28;20026;-55
2022/08/31 01:56:22;;;;;;;6.00;3.05;;;;;;;;;;5012796;28;20471;-44
2022/08/31 01:58:49;;;;;;;3.35;2.00;;;;;;;;;;5013422;28;20053;-43
2022/08/31 02:01:15;;;;;;;3.40;2.50;;;;;;;;;;5010589;28;20591;-43
2022/08/31 02:03:41;;;;;;;2.53;1.92;;;;;;;;;;5013318;28;20057;-44
2022/08/31 02:06:11;;;;;;;3.08;1.98;;;;;;;;;;5012484;28;20100;-43
2022/08/31 02:08:39;;;;;;;3.58;2.53;;;;;;;;;;5013132;28;20042;-46
2022/08/31 02:11:05;;;;;;;2.75;2.17;;;;;;;;;;5012447;28;20034;-44
2022/08/31 02:13:32;;;;;;;3.08;2.50;;;;;;;;;;5013107;28;20054;-46
2022/08/31 02:15:58;;;;;;;3.45;2.35;;;;;;;;;;5012348;28;20105;-50
2022/08/31 02:18:25;;;;;;;2.80;2.20;;;;;;;;;;5011122;28;20030;-44
2022/08/31 02:20:51;;;;;;;2.33;1.83;;;;;;;;;;5012702;28;20448;-44
2022/08/31 02:23:17;;;;;;;3.28;2.53;;;;;;;;;;5011599;28;20091;-43
2022/08/31 02:25:43;;;;;;;3.03;1.90;;;;;;;;;;5012683;28;20029;-43
2022/08/31 02:28:12;;;;;;;3.08;2.33;;;;;;;;;;5011995;28;20451;-45
2022/08/31 02:30:38;;;;;;;2.50;1.90;;;;;;;;;;5013268;28;20140;-43
2022/08/31 02:33:04;;;;;;;2.90;2.05;;;;;;;;;;5012119;28;20494;-45
2022/08/31 02:35:30;;;;;;;2.42;1.80;;;;;;;;;;5010755;28;20030;-44
2022/08/31 02:37:56;;;;;;;3.10;2.35;;;;;;;;;;5012257;28;20032;-54
2022/08/31 02:40:22;;;;;;;5.85;2.53;;;;;;;;;;5012164;28;20026;-43
2022/08/31 02:42:48;;;;;;;3.85;2.08;;;;;;;;;;5012639;28;20415;-44
2022/08/31 02:45:14;;;;;;;3.90;2.42;;;;;;;;;;5011600;28;20024;-46
2022/08/31 02:47:40;;;;;;;3.40;2.40;;;;;;;;;;5012708;28;20026;-43
2022/08/31 02:50:06;;;;;;;3.75;2.22;;;;;;;;;;5011787;28;20029;-46
2022/08/31 02:52:32;;;;;;;3.60;1.90;;;;;;;;;;5010798;28;20029;-45
2022/08/31 02:54:58;;;;;;;3.00;2.13;;;;;;;;;;5011982;28;20068;-54
2022/08/31 02:57:24;;;;;;;4.63;2.38;;;;;;;;;;5012401;28;20022;-43
2022/08/31 02:59:50;;;;;;;2.58;2.17;;;;;;;;;;5012109;28;20076;-47
2022/08/31 03:02:16;;;;;;;4.05;2.17;;;;;;;;;;5011615;28;20033;-43
2022/08/31 03:04:42;;;;;;;2.72;2.10;;;;;;;;;;5009522;28;20050;-44
2022/08/31 03:07:09;;;;;;;2.70;2.10;;;;;;;;;;4994834;28;20046;-44
2022/08/31 03:09:35;;;;;;;2.70;2.00;;;;;;;;;;5012401;28;20030;-44
2022/08/31 03:12:01;;;;;;;3.05;2.40;;;;;;;;;;5011529;28;20363;-54
2022/08/31 03:14:27;;;;;;;2.50;2.08;;;;;;;;;;5012107;28;20026;-43
2022/08/31 03:16:53;;;;;;;2.75;2.30;;;;;;;;;;5012259;28;20029;-46
2022/08/31 03:19:20;;;;;;;3.22;2.08;;;;;;;;;;5011234;28;20022;-48
2022/08/31 03:21:46;;;;;;;3.03;1.90;;;;;;;;;;5012247;28;20483;-44
2022/08/31 03:24:16;;;;;;;3.03;2.03;;;;;;;;;;5011790;28;20113;-44
2022/08/31 03:26:43;;;;;;;3.95;2.28;;;;;;;;;;5010163;28;20100;-46
2022/08/31 03:29:09;;;;;;;3.17;1.90;;;;;;;;;;5011278;28;20076;-43
2022/08/31 03:31:35;;;;;;;3.10;2.10;;;;;;;;;;5012183;28;20034;-43
2022/08/31 03:34:01;;;;;;;4.10;2.03;;;;;;;;;;5011572;28;20026;-55
2022/08/31 03:36:27;;;;;;;2.90;2.25;;;;;;;;;;5015332;28;20022;-43
2022/08/31 03:38:53;;;;;;;3.28;2.20;;;;;;;;;;5016066;28;20041;-43
2022/08/31 03:41:21;;;;;;;5.20;2.47;;;;;;;;;;5015147;28;20026;-44
2022/08/31 03:43:47;;;;;;;2.55;2.13;;;;;;;;;;4999008;28;20109;-43
2022/08/31 03:46:13;;;;;;;2.47;2.08;;;;;;;;;;4995432;28;20118;-45
2022/08/31 03:48:39;;;;;;;2.55;1.92;;;;;;;;;;4996347;28;20073;-45
2022/08/31 03:51:05;;;;;;;2.65;2.17;;;;;;;;;;4995461;28;20037;-43
2022/08/31 03:53:31;;;;;;;2.75;2.40;;;;;;;;;;4996014;28;20030;-44
2022/08/31 03:56:01;;;;;;;4.07;2.33;;;;;;;;;;5011359;28;20101;-44
2022/08/31 03:58:30;;;;;;;3.55;2.20;;;;;;;;;;5013357;28;20014;-43
2022/08/31 04:00:56;;;;;;;2.05;1.85;;;;;;;;;;5015322;28;20038;-43
2022/08/31 04:03:23;;;;;;;2.05;1.77;;;;;;;;;;5014869;28;20178;-43
2022/08/31 04:05:49;;;;;;;3.40;2.05;;;;;;;;;;5015177;28;20430;-44
2022/08/31 04:08:15;;;;;;;2.08;1.88;;;;;;;;;;5014782;28;20391;-46
2022/08/31 04:10:42;;;;;;;3.28;2.10;;;;;;;;;;5015453;28;20026;-43
2022/08/31 04:13:08;;;;;;;3.33;2.30;;;;;;;;;;5014653;28;20411;-43
2022/08/31 04:15:35;;;;;;;3.42;2.78;;;;;;;;;;4999927;28;20022;-45
2022/08/31 04:18:01;;;;;;;2.08;1.88;;;;;;;;;;4995213;28;20025;-53
2022/08/31 04:20:27;;;;;;;2.85;1.90;;;;;;;;;;4995211;28;20034;-45
2022/08/31 04:22:53;;;;;;;3.10;2.22;;;;;;;;;;4995329;28;20468;-43
2022/08/31 04:25:19;;;;;;;3.00;2.70;;;;;;;;;;4994899;28;20023;-43
2022/08/31 04:27:49;;;;;;;2.92;1.98;;;;;;;;;;4995497;28;20034;-43
2022/08/31 04:30:15;;;;;;;2.47;1.80;;;;;;;;;;4994542;28;20034;-45
2022/08/31 04:32:41;;;;;;;3.47;2.10;;;;;;;;;;4994155;28;20501;-43
2022/08/31 04:35:07;;;;;;;2.42;2.13;;;;;;;;;;4994544;28;20026;-44
2022/08/31 04:37:33;;;;;;;2.30;1.90;;;;;;;;;;4995637;28;20026;-46
2022/08/31 04:40:00;;;;;;;4.65;2.30;;;;;;;;;;4995317;28;20066;-43
2022/08/31 04:42:28;;;;;;;3.08;2.40;;;;;;;;;;4994378;28;20037;-44
2022/08/31 04:44:54;;;;;;;3.30;2.35;;;;;;;;;;4995247;28;20023;-44
2022/08/31 04:47:20;;;;;;;2.88;1.80;;;;;;;;;;5005005;28;20109;-44
2022/08/31 04:49:47;;;;;;;3.33;1.90;;;;;;;;;;5014737;28;20025;-44
2022/08/31 04:52:12;;;;;;;2.70;2.17;;;;;;;;;;5013460;28;20372;-44
2022/08/31 04:54:38;;;;;;;3.58;2.40;;;;;;;;;;5014605;28;20025;-45
2022/08/31 04:57:04;;;;;;;1.98;1.77;;;;;;;;;;4996611;28;20080;-54
2022/08/31 04:59:30;;;;;;;5.18;2.10;;;;;;;;;;5014131;28;20096;-43
2022/08/31 05:01:57;;;;;;;1.88;1.60;;;;;;;;;;5013697;28;20108;-48
2022/08/31 05:04:24;;;;;;;1.88;1.67;;;;;;;;;;5010895;28;20030;-45
2022/08/31 05:06:50;;;;;;;3.80;2.10;;;;;;;;;;5014196;28;20050;-45
2022/08/31 05:09:17;;;;;;;2.40;1.88;;;;;;;;;;5013853;28;20113;-46
2022/08/31 05:11:44;;;;;;;3.05;2.30;;;;;;;;;;5014421;28;20025;-45
2022/08/31 05:14:10;;;;;;;2.17;1.95;;;;;;;;;;5013433;28;20037;-43
2022/08/31 05:16:40;;;;;;;3.30;1.90;;;;;;;;;;5013751;28;20438;-45
2022/08/31 05:19:06;;;;;;;3.40;2.22;;;;;;;;;;5013721;28;20026;-55
2022/08/31 05:21:37;;;;;;;2.50;1.95;;;;;;;;;;5006524;28;20031;-43
2022/08/31 05:24:04;;;;;;;2.30;1.75;;;;;;;;;;5014125;28;20034;-43
2022/08/31 05:26:31;;;;;;;3.10;2.10;;;;;;;;;;5013410;28;20022;-43
2022/08/31 05:29:01;;;;;;;2.33;1.88;;;;;;;;;;5013950;28;20030;-45
2022/08/31 05:31:30;;;;;;;2.20;2.00;;;;;;;;;;5013015;28;20105;-44
2022/08/31 05:33:57;;;;;;;2.88;2.40;;;;;;;;;;5013854;28;20022;-43
2022/08/31 05:36:24;;;;;;;2.20;2.00;;;;;;;;;;5006257;28;20027;-47
2022/08/31 05:38:52;;;;;;;2.50;1.85;;;;;;;;;;4994079;28;20061;-44
2022/08/31 05:41:18;;;;;;;4.32;2.08;;;;;;;;;;4993312;28;20030;-43
2022/08/31 05:43:44;;;;;;;2.95;2.50;;;;;;;;;;4976751;28;20026;-43
2022/08/31 05:46:12;;;;;;;2.92;2.05;;;;;;;;;;4993386;28;20418;-48
2022/08/31 05:48:38;;;;;;;2.28;1.98;;;;;;;;;;4993952;28;20022;-43
2022/08/31 05:51:06;;;;;;;3.30;2.20;;;;;;;;;;4993306;28;20088;-54
2022/08/31 05:53:32;;;;;;;3.63;1.90;;;;;;;;;;5011069;28;20068;-43
2022/08/31 05:55:59;;;;;;;2.25;2.05;;;;;;;;;;5013521;28;20029;-46
2022/08/31 05:58:26;;;;;;;2.15;1.70;;;;;;;;;;5011395;28;20026;-43
2022/08/31 06:00:52;;;;;;;2.15;1.95;;;;;;;;;;5013448;28;20033;-47
2022/08/31 06:03:18;;;;;;;3.38;2.08;;;;;;;;;;5012375;28;20486;-45
2022/08/31 06:05:44;;;;;;;3.10;1.95;;;;;;;;;;5002811;28;20137;-44
2022/08/31 06:08:10;;;;;;;3.13;2.00;;;;;;;;;;4993149;28;20030;-56
2022/08/31 06:10:36;;;;;;;2.55;2.08;;;;;;;;;;4992814;28;20118;-43
2022/08/31 06:13:04;;;;;;;4.18;2.65;;;;;;;;;;4993619;28;20062;-47
2022/08/31 06:15:30;;;;;;;5.97;3.53;;;;;;;;;;4992451;28;20580;-47
2022/08/31 06:17:56;;;;;;;13.23;5.47;;;;;;;;;;4992425;28;20121;-47
2022/08/31 06:20:22;;;;;;;6.70;4.10;;;;;;;;;;4986368;28;20026;-43
2022/08/31 06:22:48;;;;;;;5.25;3.90;;;;;;;;;;5005062;28;20026;-45
2022/08/31 06:25:18;;;;;;;4.95;3.75;;;;;;;;;;5003414;28;20392;-43
2022/08/31 06:27:46;;;;;;;6.30;4.22;;;;;;;;;;4997329;28;20367;-43
2022/08/31 06:30:18;;;;;;;6.10;4.05;;;;;;;;;;5008318;28;20026;-45
2022/08/31 06:32:44;;;;;;;;;;;;;;;;;;4997624;28;20026;-45
2022/08/31 06:35:10;;;;;;;5.82;3.78;;;;;;;;;;5002655;28;19905;-55
2022/08/31 06:37:35;;;;;;;5.90;4.22;;;;;;;;;;5001565;28;20546;-47
2022/08/31 06:40:02;;;;;;;7.90;4.43;;;;;;;;;;4995984;28;20129;-49
2022/08/31 06:42:28;;;;;;;8.30;4.15;;;;;;;;;;5006330;28;20553;-43
2022/08/31 06:44:54;;;;;;;5.93;4.00;;;;;;;;;;5001117;28;20475;-45
2022/08/31 06:47:20;;;;;;;5.72;3.88;;;;;;;;;;4999546;28;20101;-47
2022/08/31 06:49:46;;;;;;;7.20;3.45;;;;;;;;;;4993692;28;20057;-44
2022/08/31 06:52:13;;;;;;;4.70;3.40;;;;;;;;;;5008030;28;20022;-45
2022/08/31 06:54:39;;;;;;;5.50;3.75;;;;;;;;;;4998919;28;20033;-43
2022/08/31 06:57:09;;;;;;;7.38;4.22;;;;;;;;;;5002287;28;20073;-43
2022/08/31 06:59:35;;;;;;;5.88;3.70;;;;;;;;;;4986895;28;20365;-48
2022/08/31 07:02:02;;;;;;;4.68;3.65;;;;;;;;;;5007954;28;20088;-44
2022/08/31 07:04:31;;;;;;;5.85;4.53;;;;;;;;;;4995419;28;20017;-46
2022/08/31 07:06:57;;;;;;;7.45;3.10;;;;;;;;;;5000850;28;20050;-43
2022/08/31 07:09:23;;;;;;;10.27;4.38;;;;;;;;;;4998389;28;20361;-43
2022/08/31 07:11:51;;;;;;;4.70;3.08;;;;;;;;;;5007031;28;20083;-43
2022/08/31 07:14:20;;;;;;;4.60;2.97;;;;;;;;;;4978848;28;20030;-43
2022/08/31 07:16:46;;;;;;;4.80;2.97;;;;;;;;;;5004811;28;20034;-45
2022/08/31 07:19:13;;;;;;;5.68;3.22;;;;;;;;;;4999642;28;20029;-46
2022/08/31 07:21:41;;;;;;;6.13;3.30;;;;;;;;;;5006698;28;20069;-43
2022/08/31 07:24:07;;;;;;;3.55;3.10;;;;;;;;;;4995289;28;20026;-43
2022/08/31 07:26:41;;;;;;;4.03;2.65;;;;;;;;;;5005880;28;20141;-44
2022/08/31 07:29:08;;;;;;;4.95;2.53;;;;;;;;;;5002434;28;20080;-43
2022/08/31 07:31:55;;;;;;;5.03;2.90;;;;;;;;;;4997456;28;20165;-43
2022/08/31 07:34:24;;;;;;;5.15;3.10;;;;;;;;;;4988374;28;20033;-43
2022/08/31 07:42:31;;;;;;;7.60;3.20;;;;;;;;;;4979164;28;20426;-43
2022/08/31 07:44:57;;;;;;;7.63;3.22;;;;;;;;;;5000427;28;20051;-45
2022/08/31 07:47:25;;;;;;;5.07;2.80;;;;;;;;;;5003919;28;20407;-43
2022/08/31 07:49:52;;;;;;;6.78;2.65;;;;;;;;;;4981601;28;20038;-48
2022/08/31 07:52:23;;;;;;;13.05;4.18;;;;;;;;;;5006877;28;20045;-45
2022/08/31 07:54:49;;;;;;;6.03;3.60;;;;;;;;;;4993122;28;20400;-43
2022/08/31 07:57:16;;;;;;;6.03;2.75;;;;;;;;;;4992085;28;20030;-43
2022/08/31 07:59:42;;;;;;;6.45;3.00;;;;;;;;;;5007052;28;20034;-42
2022/08/31 08:02:09;;;;;;;5.43;3.00;;;;;;;;;;4994699;28;20030;-51
2022/08/31 08:04:38;;;;;;;5.45;3.05;;;;;;;;;;5006511;28;20540;-42
2022/08/31 08:07:04;;;;;;;6.43;2.78;;;;;;;;;;5001061;28;20053;-42
2022/08/31 08:09:31;;;;;;;6.88;3.05;;;;;;;;;;5004338;28;20057;-43
2022/08/31 08:12:03;;;;;;;4.93;3.13;;;;;;;;;;4992677;28;20058;-42
2022/08/31 08:14:29;;;;;;;6.07;3.17;;;;;;;;;;4995916;28;20026;-44
2022/08/31 08:16:55;;;;;;;3.35;2.72;;;;;;;;;;5002978;28;20073;-42
2022/08/31 08:19:21;;;;;;;4.57;3.05;;;;;;;;;;5003047;28;20033;-42
2022/08/31 08:21:47;;;;;;;4.57;2.70;;;;;;;;;;4996069;28;20484;-42
2022/08/31 08:24:14;;;;;;;5.15;3.03;;;;;;;;;;5010505;28;20031;-43
2022/08/31 08:26:47;;;;;;;5.85;2.95;;;;;;;;;;5001215;28;20092;-42
2022/08/31 08:29:14;;;;;;;3.20;2.67;;;;;;;;;;5002995;28;20030;-43
2022/08/31 08:31:40;;;;;;;3.60;2.80;;;;;;;;;;4995867;28;20353;-42
2022/08/31 08:34:06;;;;;;;4.15;2.60;;;;;;;;;;5011274;28;20028;-42
2022/08/31 08:36:36;;;;;;;5.90;2.72;;;;;;;;;;4999498;28;20498;-42
2022/08/31 08:39:06;;;;;;;5.75;3.15;;;;;;;;;;5005057;28;20049;-42
2022/08/31 08:41:33;;;;;;;28.88;5.10;;;;;;;;;;5007576;28;20030;-42
2022/08/31 08:44:00;;;;;;;3.67;2.50;;;;;;;;;;4998106;28;20101;-45
2022/08/31 08:46:38;;;;;;;5.80;3.03;;;;;;;;;;5008946;28;20065;-42
2022/08/31 08:49:14;;;;;;;5.35;2.80;;;;;;;;;;4990741;28;20039;-41
2022/08/31 08:51:40;;;;;;;3.40;2.78;;;;;;;;;;5004303;28;20030;-42
2022/08/31 08:54:10;;;;;;;6.20;2.60;;;;;;;;;;4997988;28;20054;-42
2022/08/31 08:56:40;;;;;;;8.02;3.17;;;;;;;;;;5007817;28;20018;-42
2022/08/31 08:59:07;;;;;;;3.47;2.60;;;;;;;;;;5004907;28;20387;-46
2022/08/31 09:01:35;;;;;;;12.23;4.32;;;;;;;;;;4999574;28;20332;-43
2022/08/31 09:04:04;;;;;;;6.32;3.10;;;;;;;;;;5010649;28;20101;-42
2022/08/31 09:06:53;;;;;;;6.60;3.22;;;;;;;;;;5005046;28;20668;-42
2022/08/31 09:09:21;;;;;;;3.55;2.85;;;;;;;;;;5005576;28;20040;-42
2022/08/31 09:12:08;;;;;;;5.00;2.70;;;;;;;;;;4998038;28;20026;-42
2022/08/31 09:14:37;;;;;;;2.80;2.45;;;;;;;;;;4978549;28;20065;-42
2022/08/31 09:17:03;;;;;;;3.90;2.58;;;;;;;;;;5004287;28;20023;-42
2022/08/31 09:19:57;;;;;;;10.52;5.32;;;;;;;;;;5006715;28;20025;-42
2022/08/31 09:22:15;;;;;;;2.70;2.22;;;;;;;;;;4996288;28;20038;-50
2022/08/31 09:24:41;;;;;;;4.90;2.88;;;;;;;;;;5007003;28;20522;-42
2022/08/31 09:27:17;;;;;;;2.97;2.30;;;;;;;;;;5004339;28;20030;-42
2022/08/31 09:29:52;;;;;;;5.90;2.67;;;;;;;;;;4998804;28;20091;-42
2022/08/31 09:32:24;;;;;;;4.03;2.78;;;;;;;;;;4980482;28;20049;-42
2022/08/31 09:34:59;;;;;;;6.03;2.70;;;;;;;;;;5006123;28;20054;-44
2022/08/31 09:37:27;;;;;;;4.15;2.78;;;;;;;;;;5005907;28;20030;-42
2022/08/31 09:39:54;;;;;;;3.42;2.53;;;;;;;;;;4996995;28;20026;-42
2022/08/31 09:42:30;;;;;;;3.90;2.75;;;;;;;;;;5008910;28;20030;-43
2022/08/31 09:45:28;;;;;;;3.90;2.47;;;;;;;;;;4993284;28;20026;-42
2022/08/31 09:47:59;;;;;;;5.30;2.90;;;;;;;;;;4995992;28;20114;-42
2022/08/31 09:50:29;;;;;;;3.45;2.58;;;;;;;;;;4986730;28;20033;-44
2022/08/31 09:56:04;;;;;;;4.47;2.70;;;;;;;;;;4996604;28;20081;-42
2022/08/31 09:58:32;;;;;;;4.57;2.80;;;;;;;;;;4996364;28;20060;-42
2022/08/31 10:01:11;;;;;;;3.40;2.58;;;;;;;;;;4999242;28;20027;-42
2022/08/31 10:03:43;;;;;;;3.00;2.30;;;;;;;;;;4987902;28;20030;-42
2022/08/31 10:06:24;;;;;;;6.30;2.88;;;;;;;;;;4999646;28;20054;-42
2022/08/31 10:08:56;;;;;;;;;;;;;;;;;;5005315;28;20049;-42
2022/08/31 10:11:23;;;;;;;4.30;2.50;;;;;;;;;;5004822;28;20020;-42
2022/08/31 10:14:03;;;;;;;3.28;2.65;;;;;;;;;;4996647;28;20061;-43
2022/08/31 10:16:55;;;;;;;4.63;2.70;;;;;;;;;;4983035;28;20022;-43
2022/08/31 10:19:34;;;;;;;3.15;2.17;;;;;;;;;;4969527;28;20435;-42
2022/08/31 10:22:04;;;;;;;3.55;2.53;;;;;;;;;;5009140;28;20034;-43
2022/08/31 10:24:37;;;;;;;3.65;2.50;;;;;;;;;;4997335;28;20022;-43
2022/08/31 10:27:08;;;;;;;5.38;3.13;;;;;;;;;;5002788;28;20816;-42
2022/08/31 10:29:40;;;;;;;5.20;3.00;;;;;;;;;;5001466;28;20034;-42
2022/08/31 10:32:11;;;;;;;4.55;2.80;;;;;;;;;;5001678;28;20029;-42
2022/08/31 10:37:30;;;;;;;3.92;2.63;;;;;;;;;;5000541;28;20029;-43
2022/08/31 10:40:04;;;;;;;3.45;2.47;;;;;;;;;;5008578;28;20076;-42
2022/08/31 10:42:36;;;;;;;4.00;2.80;;;;;;;;;;4997113;28;20022;-44
2022/08/31 10:45:14;;;;;;;3.97;2.83;;;;;;;;;;5002259;28;20030;-43
2022/08/31 10:47:45;;;;;;;3.95;3.20;;;;;;;;;;4993036;28;20476;-42
2022/08/31 10:50:15;;;;;;;3.65;3.20;;;;;;;;;;4984779;28;20035;-42
2022/08/31 10:52:47;;;;;;;5.68;3.08;;;;;;;;;;5005096;28;20026;-45
2022/08/31 10:55:22;;;;;;;4.95;3.60;;;;;;;;;;5003361;28;20494;-47
2022/08/31 10:57:59;;;;;;;4.50;2.78;;;;;;;;;;4996219;28;20360;-44
2022/08/31 11:00:44;;;;;;;5.82;3.42;;;;;;;;;;4981486;28;20057;-46
2022/08/31 11:03:29;;;;;;;3.38;2.67;;;;;;;;;;5001529;28;20150;-45
2022/08/31 11:06:00;;;;;;;4.90;3.22;;;;;;;;;;4997260;28;20085;-42
2022/08/31 11:08:28;;;;;;;4.63;3.58;;;;;;;;;;5006269;28;20098;-44
2022/08/31 11:10:55;;;;;;;4.50;3.28;;;;;;;;;;5001006;28;20038;-42
2022/08/31 11:13:24;;;;;;;6.43;3.30;;;;;;;;;;4999176;28;20475;-45
2022/08/31 11:15:53;;;;;;;7.30;3.83;;;;;;;;;;5008460;28;20065;-47
2022/08/31 11:18:25;;;;;;;3.97;3.25;;;;;;;;;;4979247;28;20015;-54
2022/08/31 11:20:54;;;;;;;4.07;2.85;;;;;;;;;;5003820;28;20038;-47
2022/08/31 11:23:33;;;;;;;4.05;2.90;;;;;;;;;;5003237;28;20030;-45
2022/08/31 11:26:01;;;;;;;4.20;3.38;;;;;;;;;;4995367;28;20026;-44
2022/08/31 11:28:40;;;;;;;5.70;3.10;;;;;;;;;;5006206;28;20018;-45
2022/08/31 11:31:08;;;;;;;7.25;3.17;;;;;;;;;;5002315;28;20105;-45
2022/08/31 11:33:34;;;;;;;5.38;3.53;;;;;;;;;;4996964;28;20400;-42
2022/08/31 11:36:07;;;;;;;4.38;3.22;;;;;;;;;;5008267;28;20050;-43
2022/08/31 11:39:00;;;;;;;6.75;3.03;;;;;;;;;;4996736;28;20033;-46
2022/08/31 11:41:47;;;;;;;4.03;3.17;;;;;;;;;;4968256;28;20046;-44
2022/08/31 11:44:28;;;;;;;4.70;3.03;;;;;;;;;;5008138;28;20097;-44
2022/08/31 11:47:05;;;;;;;5.05;3.70;;;;;;;;;;5000740;28;20037;-44
2022/08/31 11:49:53;;;;;;;7.22;3.38;;;;;;;;;;4997357;28;20065;-42
2022/08/31 11:52:27;;;;;;;3.70;2.95;;;;;;;;;;4979607;28;20105;-53
2022/08/31 11:54:53;;;;;;;5.80;3.63;;;;;;;;;;5002962;28;20023;-45
2022/08/31 11:57:23;;;;;;;3.60;3.03;;;;;;;;;;5006763;28;20044;-50
2022/08/31 11:59:50;;;;;;;4.50;3.33;;;;;;;;;;4999364;28;20383;-49
2022/08/31 12:02:19;;;;;;;3.92;3.15;;;;;;;;;;5011953;28;20035;-43
2022/08/31 12:04:45;;;;;;;3.78;3.22;;;;;;;;;;4999400;28;20022;-42
2022/08/31 12:07:23;;;;;;;4.55;3.22;;;;;;;;;;5006402;28;20056;-43
2022/08/31 12:10:21;;;;;;;3.85;3.10;;;;;;;;;;4999168;28;20030;-43
2022/08/31 12:13:17;;;;;;;4.60;3.25;;;;;;;;;;4970566;28;20033;-47
2022/08/31 12:15:59;;;;;;;5.60;3.15;;;;;;;;;;4999612;28;20057;-44
2022/08/31 12:18:37;;;;;;;7.35;3.40;;;;;;;;;;4984285;28;20014;-44
2022/08/31 12:24:23;;;;;;;7.78;3.60;;;;;;;;;;5011039;28;20053;-47
2022/08/31 12:26:57;;;;;;;6.07;4.53;;;;;;;;;;4958617;28;20034;-44
2022/08/31 12:29:35;;;;;;;6.30;4.03;;;;;;;;;;5001462;28;20033;-47
2022/08/31 12:32:01;;;;;;;6.63;3.88;;;;;;;;;;5011404;28;20080;-43
2022/08/31 12:34:27;;;;;;;4.88;3.42;;;;;;;;;;4999057;28;20100;-42
2022/08/31 12:36:53;;;;;;;5.65;3.28;;;;;;;;;;5014102;28;20096;-43
2022/08/31 12:39:24;;;;;;;5.88;3.78;;;;;;;;;;4998743;28;20225;-55
2022/08/31 12:41:52;;;;;;;5.23;3.70;;;;;;;;;;4998249;28;20435;-44
2022/08/31 12:44:22;;;;;;;6.78;4.20;;;;;;;;;;4981652;28;20101;-47
2022/08/31 12:47:09;;;;;;;6.30;3.65;;;;;;;;;;5002604;28;20076;-45
2022/08/31 12:49:44;;;;;;;6.20;3.55;;;;;;;;;;4999342;28;20030;-43
2022/08/31 12:52:11;;;;;;;8.85;3.65;;;;;;;;;;4990640;28;20101;-43
2022/08/31 12:54:49;;;;;;;6.32;3.13;;;;;;;;;;5001420;28;20116;-42
2022/08/31 12:57:15;;;;;;;6.20;3.20;;;;;;;;;;5002779;28;20030;-43
2022/08/31 13:00:00;;;;;;;6.85;3.60;;;;;;;;;;4993583;28;20022;-45
2022/08/31 13:02:26;;;;;;;5.75;3.15;;;;;;;;;;4980227;28;20080;-42
2022/08/31 13:04:52;;;;;;;5.97;3.63;;;;;;;;;;4998903;28;20364;-44
2022/08/31 13:07:19;;;;;;;6.18;3.45;;;;;;;;;;5005141;28;20078;-42
2022/08/31 13:09:45;;;;;;;7.63;3.38;;;;;;;;;;4998109;28;20164;-42
2022/08/31 13:12:20;;;;;;;11.82;3.90;;;;;;;;;;5010374;28;20037;-43
2022/08/31 13:14:46;;;;;;;5.30;3.00;;;;;;;;;;5001278;28;20107;-43
2022/08/31 13:17:14;;;;;;;5.25;4.03;;;;;;;;;;5003049;28;20050;-42
2022/08/31 13:19:45;;;;;;;4.95;3.47;;;;;;;;;;5002605;28;20026;-43
2022/08/31 13:22:15;;;;;;;6.15;3.50;;;;;;;;;;5010436;28;20041;-43
2022/08/31 13:24:43;;;;;;;4.23;3.10;;;;;;;;;;5000326;28;20590;-43
2022/08/31 13:27:09;;;;;;;4.60;2.65;;;;;;;;;;5002678;28;20034;-45
2022/08/31 13:29:42;;;;;;;4.57;3.10;;;;;;;;;;5006998;28;20026;-45
2022/08/31 13:32:09;;;;;;;5.43;3.45;;;;;;;;;;4997411;28;20038;-46
2022/08/31 13:34:40;;;;;;;4.40;3.95;;;;;;;;;;5007335;28;20345;-43
2022/08/31 13:37:10;;;;;;;;;;;;;;;;;;4995474;28;20082;-44
2022/08/31 13:39:43;;;;;;;4.38;2.80;;;;;;;;;;5005368;28;19933;-43
2022/08/31 13:42:22;;;;;;;4.15;3.15;;;;;;;;;;4990335;28;20072;-43
2022/08/31 13:44:52;;;;;;;3.33;2.55;;;;;;;;;;4998447;28;20030;-43
2022/08/31 13:47:21;;;;;;;4.90;3.00;;;;;;;;;;4996647;28;20030;-43
2022/08/31 13:49:52;;;;;;;4.00;3.10;;;;;;;;;;4992899;28;20030;-45
2022/08/31 13:52:24;;;;;;;4.78;2.75;;;;;;;;;;4981274;28;20021;-44
2022/08/31 13:54:58;;;;;;;5.38;3.17;;;;;;;;;;5001226;28;20041;-45
2022/08/31 13:57:28;;;;;;;7.43;3.10;;;;;;;;;;5012358;28;20022;-53
2022/08/31 13:59:54;;;;;;;6.93;3.72;;;;;;;;;;4996863;28;20102;-48
2022/08/31 14:02:24;;;;;;;5.05;2.92;;;;;;;;;;5002005;28;20030;-43
2022/08/31 14:05:02;;;;;;;6.13;3.30;;;;;;;;;;5002113;28;20068;-43
2022/08/31 14:07:27;;;;;;;5.00;3.17;;;;;;;;;;4999102;28;20042;-44
2022/08/31 14:09:58;;;;;;;8.02;3.28;;;;;;;;;;4995767;28;20479;-43
2022/08/31 14:12:35;;;;;;;3.23;2.93;;;;;;;;;;4988013;28;20488;-54
2022/08/31 14:15:03;;;;;;;4.20;3.03;;;;;;;;;;4986844;28;20340;-46
2022/08/31 14:17:30;;;;;;;5.90;2.92;;;;;;;;;;4984395;28;20023;-43
2022/08/31 14:19:57;;;;;;;6.70;3.00;;;;;;;;;;4986853;28;20026;-43
2022/08/31 14:22:34;;;;;;;4.50;2.60;;;;;;;;;;4987619;28;20069;-54
2022/08/31 14:25:01;;;;;;;3.30;2.72;;;;;;;;;;5001911;28;20026;-48
2022/08/31 14:27:28;;;;;;;3.90;3.10;;;;;;;;;;4997675;28;20029;-53
2022/08/31 14:29:54;;;;;;;3.22;2.65;;;;;;;;;;4982886;28;20487;-45
2022/08/31 14:32:21;;;;;;;7.70;3.88;;;;;;;;;;4984804;28;20372;-43
2022/08/31 14:34:48;;;;;;;4.03;2.95;;;;;;;;;;4983140;28;20018;-43
2022/08/31 14:37:27;;;;;;;5.20;3.35;;;;;;;;;;4988213;28;20029;-42
2022/08/31 14:39:56;;;;;;;4.95;3.05;;;;;;;;;;5008894;28;20018;-43
2022/08/31 14:42:26;;;;;;;3.85;2.78;;;;;;;;;;4996827;28;20030;-43
2022/08/31 14:45:03;;;;;;;3.90;2.83;;;;;;;;;;5003750;28;20057;-44
2022/08/31 14:47:31;;;;;;;3.95;3.17;;;;;;;;;;5005167;28;20018;-44
2022/08/31 14:49:58;;;;;;;6.00;2.90;;;;;;;;;;4996049;28;20018;-43
2022/08/31 14:52:27;;;;;;;5.05;3.00;;;;;;;;;;5007780;28;20026;-50
2022/08/31 14:54:57;;;;;;;4.03;3.00;;;;;;;;;;5000642;28;20044;-43
2022/08/31 14:57:24;;;;;;;3.10;2.75;;;;;;;;;;4998042;28;20154;-43
2022/08/31 14:59:55;;;;;;;4.18;2.95;;;;;;;;;;4987879;28;20122;-44
2022/08/31 15:02:21;;;;;;;4.33;2.93;;;;;;;;;;4989753;28;20026;-43
2022/08/31 15:04:47;;;;;;;6.55;2.92;;;;;;;;;;4988676;28;20848;-43
2022/08/31 15:07:15;;;;;;;4.10;2.58;;;;;;;;;;4985343;28;20046;-43
2022/08/31 15:09:42;;;;;;;5.75;3.03;;;;;;;;;;4983844;28;20025;-43
2022/08/31 15:12:10;;;;;;;5.38;3.25;;;;;;;;;;4989098;28;20089;-43
2022/08/31 15:14:37;;;;;;;4.55;3.17;;;;;;;;;;4984588;28;20431;-43